createdAt,value
2019-03-03T00:05:12.143Z,93.89
2019-03-03T00:07:43.386Z,93.89
2019-03-03T00:10:14.696Z,93.52
2019-03-03T00:12:43.708Z,93.34
2019-03-03T00:15:15.102Z,93.33
2019-03-03T00:17:46.455Z,93.17
2019-03-03T00:20:15.952Z,93.17
2019-03-03T00:22:47.292Z,93.09
2019-03-03T00:25:16.389Z,93.04
2019-03-03T00:27:45.152Z,92.96
2019-03-03T00:30:17.781Z,92.87
2019-03-03T00:32:46.602Z,92.87
2019-03-03T00:35:15.700Z,92.74
2019-03-03T00:38:09.724Z,92.44
2019-03-03T00:40:41.536Z,92.13
2019-03-03T00:43:20.081Z,91.92
2019-03-03T00:45:50.946Z,91.92
2019-03-03T00:48:24.047Z,92.02
2019-03-03T00:50:57.074Z,92.30
2019-03-03T00:53:46.370Z,92.14
2019-03-03T00:56:28.515Z,91.78
2019-03-03T00:59:01.941Z,91.59
2019-03-03T01:01:37.933Z,91.33
2019-03-03T01:04:28.969Z,91.33
2019-03-03T01:07:17.346Z,91.20
2019-03-03T01:10:11.090Z,91.20
2019-03-03T01:12:58.606Z,90.81
2019-03-03T01:15:34.580Z,90.87
2019-03-03T01:18:15.855Z,90.90
2019-03-03T01:20:54.927Z,90.91
2019-03-03T01:23:33.550Z,91.39
2019-03-03T01:26:04.791Z,91.29
2019-03-03T01:28:37.136Z,91.06
2019-03-03T01:31:05.709Z,91.06
2019-03-03T01:33:34.353Z,91.04
2019-03-03T01:36:03.375Z,90.98
2019-03-03T01:38:32.285Z,90.85
2019-03-03T01:41:03.996Z,90.83
2019-03-03T01:43:35.243Z,91.03
2019-03-03T01:46:03.966Z,90.75
2019-03-03T01:48:35.694Z,90.75
2019-03-03T01:51:06.981Z,91.96
2019-03-03T01:53:39.768Z,92.31
2019-03-03T01:56:11.325Z,92.53
2019-03-03T01:58:40.347Z,92.53
2019-03-03T02:01:11.928Z,92.85
2019-03-03T02:03:43.820Z,92.83
2019-03-03T02:06:12.459Z,92.88
2019-03-03T02:08:44.123Z,92.88
2019-03-03T02:11:16.022Z,92.85
2019-03-03T02:13:45.053Z,92.85
2019-03-03T02:16:13.977Z,93.19
2019-03-03T02:18:45.258Z,93.04
2019-03-03T02:21:13.975Z,93.04
2019-03-03T02:23:45.733Z,93.39
2019-03-03T02:26:17.690Z,93.59
2019-03-03T02:28:49.112Z,93.76
2019-03-03T02:31:18.253Z,93.76
2019-03-03T02:33:46.835Z,93.87
2019-03-03T02:36:18.721Z,93.84
2019-03-03T02:38:50.003Z,94.24
2019-03-03T02:41:18.586Z,94.39
2019-03-03T02:43:50.202Z,93.65
2019-03-03T02:46:21.522Z,93.65
2019-03-03T02:48:52.818Z,94.56
2019-03-03T02:51:24.140Z,94.56
2019-03-03T02:53:55.698Z,94.22
2019-03-03T02:56:26.983Z,94.42
2019-03-03T02:58:55.790Z,94.59
2019-03-03T03:01:26.003Z,94.79
2019-03-03T03:03:57.644Z,95.33
2019-03-03T03:09:26.695Z,96.20
2019-03-03T03:12:02.217Z,96.53
2019-03-03T03:14:38.051Z,96.68
2019-03-03T03:17:11.368Z,96.68
2019-03-03T03:19:46.837Z,96.98
2019-03-03T03:22:19.760Z,96.96
2019-03-03T03:25:05.076Z,96.96
2019-03-03T03:27:37.971Z,96.98
2019-03-03T03:30:11.708Z,97.01
2019-03-03T03:32:47.304Z,97.17
2019-03-03T03:35:23.709Z,97.18
2019-03-03T03:38:00.161Z,97.18
2019-03-03T03:40:42.189Z,97.32
2019-03-03T03:43:15.308Z,97.28
2019-03-03T03:46:00.821Z,97.28
2019-03-03T03:48:50.144Z,97.18
2019-03-03T03:51:38.818Z,97.12
2019-03-03T03:54:19.171Z,96.92
2019-03-03T03:57:07.121Z,97.00
2019-03-03T03:59:43.945Z,97.07
2019-03-03T04:02:26.030Z,97.22
2019-03-03T04:05:11.046Z,97.45
2019-03-03T04:07:41.289Z,97.68
2019-03-03T04:10:23.742Z,97.93
2019-03-03T04:13:11.819Z,98.16
2019-03-03T04:15:57.320Z,98.33
2019-03-03T04:18:36.292Z,98.34
2019-03-03T04:21:21.351Z,98.36
2019-03-03T04:24:12.377Z,98.27
2019-03-03T04:26:54.091Z,98.17
2019-03-03T04:29:26.905Z,98.16
2019-03-03T04:31:57.166Z,98.33
2019-03-03T04:34:45.938Z,98.27
2019-03-03T04:37:19.156Z,98.19
2019-03-03T04:39:57.882Z,98.09
2019-03-03T04:42:42.392Z,98.05
2019-03-03T04:45:31.379Z,98.00
2019-03-03T04:48:20.572Z,97.88
2019-03-03T04:50:54.115Z,97.88
2019-03-03T04:56:20.749Z,97.94
2019-03-03T04:58:57.070Z,97.89
2019-03-03T05:01:30.111Z,97.23
2019-03-03T05:04:03.023Z,96.50
2019-03-03T05:06:33.273Z,95.98
2019-03-03T05:09:14.518Z,95.57
2019-03-03T05:12:18.902Z,94.96
2019-03-03T05:14:52.056Z,94.60
2019-03-03T05:17:25.283Z,94.06
2019-03-03T05:20:04.554Z,94.26
2019-03-03T05:22:33.100Z,93.77
2019-03-03T05:25:01.787Z,93.81
2019-03-03T05:27:33.065Z,93.92
2019-03-03T05:30:07.706Z,94.06
2019-03-03T05:32:39.715Z,93.98
2019-03-03T05:35:10.478Z,93.79
2019-03-03T05:37:42.057Z,93.57
2019-03-03T05:40:10.768Z,93.65
2019-03-03T05:42:42.248Z,93.50
2019-03-03T05:45:13.827Z,93.24
2019-03-03T05:47:45.135Z,92.53
2019-03-03T05:50:16.694Z,92.69
2019-03-03T05:52:45.295Z,92.80
2019-03-03T05:55:16.981Z,93.07
2019-03-03T05:57:46.509Z,92.99
2019-03-03T06:00:17.987Z,92.99
2019-03-03T06:02:49.873Z,93.07
2019-03-03T06:05:18.483Z,93.03
2019-03-03T06:07:49.762Z,92.67
2019-03-03T06:10:21.327Z,92.66
2019-03-03T06:12:52.606Z,92.55
2019-03-03T06:15:21.549Z,92.28
2019-03-03T06:17:50.556Z,92.22
2019-03-03T06:20:22.498Z,91.80
2019-03-03T06:22:54.126Z,91.56
2019-03-03T06:25:26.027Z,91.36
2019-03-03T06:27:57.419Z,91.28
2019-03-03T06:30:29.410Z,91.06
2019-03-03T06:33:00.797Z,90.89
2019-03-03T06:35:32.278Z,90.89
2019-03-03T06:38:03.869Z,90.77
2019-03-03T06:40:35.348Z,90.64
2019-03-03T06:43:07.680Z,90.68
2019-03-03T06:45:40.447Z,90.74
2019-03-03T06:48:12.363Z,90.55
2019-03-03T06:50:40.980Z,90.15
2019-03-03T06:53:12.662Z,89.86
2019-03-03T06:55:44.234Z,89.33
2019-03-03T06:58:12.947Z,89.03
2019-03-03T07:00:44.213Z,88.40
2019-03-03T07:03:15.463Z,87.66
2019-03-03T07:05:46.942Z,87.99
2019-03-03T07:08:18.547Z,88.15
2019-03-03T07:10:49.925Z,88.05
2019-03-03T07:13:21.727Z,87.75
2019-03-03T07:15:53.499Z,85.70
2019-03-03T07:18:24.885Z,85.59
2019-03-03T07:24:02.674Z,84.71
2019-03-03T07:26:34.261Z,84.59
2019-03-03T07:29:05.564Z,83.70
2019-03-03T07:31:39.797Z,83.47
2019-03-03T07:34:11.390Z,82.13
2019-03-03T07:36:39.987Z,81.61
2019-03-03T07:39:18.579Z,81.78
2019-03-03T07:41:50.622Z,82.20
2019-03-03T07:44:19.194Z,82.80
2019-03-03T07:46:50.815Z,80.33
2019-03-03T07:49:22.405Z,79.71
2019-03-03T07:51:53.810Z,80.38
2019-03-03T07:54:25.039Z,80.02
2019-03-03T07:56:56.639Z,80.21
2019-03-03T07:59:25.760Z,79.69
2019-03-03T08:01:57.349Z,79.77
2019-03-03T08:04:28.725Z,79.45
2019-03-03T08:07:00.530Z,76.89
2019-03-03T08:09:31.798Z,77.95
2019-03-03T08:12:00.432Z,77.02
2019-03-03T08:14:29.045Z,77.74
2019-03-03T08:16:57.754Z,77.32
2019-03-03T08:19:29.228Z,75.25
2019-03-03T08:22:00.909Z,76.70
2019-03-03T08:24:29.534Z,76.37
2019-03-03T08:27:00.906Z,75.35
2019-03-03T08:29:32.228Z,76.15
2019-03-03T08:32:00.998Z,74.77
2019-03-03T08:34:29.622Z,75.39
2019-03-03T08:37:01.085Z,74.93
2019-03-03T08:39:30.013Z,75.51
2019-03-03T08:42:03.207Z,73.21
2019-03-03T08:44:36.248Z,73.34
2019-03-03T08:47:12.140Z,73.13
2019-03-03T08:49:47.783Z,72.74
2019-03-03T08:52:17.971Z,70.60
2019-03-03T08:54:50.893Z,71.44
2019-03-03T08:57:23.905Z,70.73
2019-03-03T09:00:02.832Z,70.98
2019-03-03T09:02:35.679Z,70.97
2019-03-03T09:05:07.258Z,70.52
2019-03-03T09:07:40.678Z,70.47
2019-03-03T09:10:25.326Z,69.89
2019-03-03T09:12:54.430Z,71.51
2019-03-03T09:15:27.980Z,70.31
2019-03-03T09:17:58.178Z,71.67
2019-03-03T09:20:44.213Z,72.51
2019-03-03T09:23:32.676Z,74.86
2019-03-03T09:26:18.242Z,73.47
2019-03-03T09:29:00.593Z,73.30
2019-03-03T09:31:40.544Z,71.68
2019-03-03T09:34:30.158Z,70.12
2019-03-03T09:37:03.217Z,71.62
2019-03-03T09:39:33.405Z,71.25
2019-03-03T09:42:21.703Z,71.19
2019-03-03T09:45:10.720Z,70.40
2019-03-03T09:48:01.970Z,71.41
2019-03-03T09:50:37.972Z,71.71
2019-03-03T09:53:17.137Z,71.13
2019-03-03T09:55:56.074Z,71.64
2019-03-03T09:58:29.307Z,71.36
2019-03-03T10:01:02.440Z,70.49
2019-03-03T10:03:48.863Z,71.17
2019-03-03T10:06:35.298Z,70.28
2019-03-03T10:09:10.073Z,70.63
2019-03-03T10:11:49.574Z,70.52
2019-03-03T10:14:22.596Z,71.66
2019-03-03T10:16:58.689Z,73.17
2019-03-03T10:19:28.890Z,74.24
2019-03-03T10:21:59.107Z,72.73
2019-03-03T10:24:41.362Z,72.73
2019-03-03T10:27:11.719Z,71.13
2019-03-03T10:29:41.926Z,70.38
2019-03-03T10:32:18.140Z,70.04
2019-03-03T10:34:48.493Z,69.98
2019-03-03T10:37:34.991Z,69.98
2019-03-03T10:40:22.321Z,69.18
2019-03-03T10:42:52.544Z,68.77
2019-03-03T10:45:34.650Z,69.90
2019-03-03T10:48:21.412Z,70.34
2019-03-03T10:50:52.035Z,69.90
2019-03-03T10:53:30.907Z,70.65
2019-03-03T10:56:01.105Z,69.46
2019-03-03T10:58:57.522Z,70.45
2019-03-03T11:01:28.149Z,70.22
2019-03-03T11:04:01.292Z,70.57
2019-03-03T11:06:34.417Z,70.00
2019-03-03T11:09:10.547Z,70.37
2019-03-03T11:11:45.132Z,70.57
2019-03-03T11:14:18.789Z,70.49
2019-03-03T11:17:05.356Z,72.05
2019-03-03T11:19:41.822Z,71.84
2019-03-03T11:22:15.263Z,73.85
2019-03-03T11:24:51.672Z,74.74
2019-03-03T11:27:27.818Z,73.93
2019-03-03T11:30:14.415Z,75.65
2019-03-03T11:32:44.975Z,73.96
2019-03-03T11:35:27.064Z,73.82
2019-03-03T11:38:00.079Z,73.24
2019-03-03T11:40:33.501Z,72.60
2019-03-03T11:43:20.441Z,73.82
2019-03-03T11:46:04.153Z,73.89
2019-03-03T11:48:51.215Z,75.17
2019-03-03T11:51:24.377Z,74.68
2019-03-03T11:53:59.744Z,74.46
2019-03-03T11:56:32.668Z,72.96
2019-03-03T11:59:19.784Z,74.34
2019-03-03T12:02:01.779Z,74.07
2019-03-03T12:04:37.624Z,73.50
2019-03-03T12:07:29.967Z,74.39
2019-03-03T12:10:16.340Z,74.75
2019-03-03T12:12:58.576Z,73.56
2019-03-03T12:15:34.330Z,74.16
2019-03-03T12:18:07.592Z,75.15
2019-03-03T12:20:37.989Z,76.27
2019-03-03T12:23:20.068Z,75.55
2019-03-03T12:25:50.362Z,77.20
2019-03-03T12:28:20.556Z,78.16
2019-03-03T12:31:06.132Z,78.33
2019-03-03T12:33:45.848Z,78.46
2019-03-03T12:36:16.069Z,78.35
2019-03-03T12:38:52.655Z,78.98
2019-03-03T12:41:25.507Z,79.65
2019-03-03T12:43:55.854Z,79.81
2019-03-03T12:46:28.481Z,79.17
2019-03-03T12:49:17.716Z,80.70
2019-03-03T12:51:48.445Z,79.18
2019-03-03T12:54:19.479Z,80.44
2019-03-03T12:56:55.405Z,79.93
2019-03-03T12:59:42.013Z,79.45
2019-03-03T13:02:29.433Z,78.23
2019-03-03T13:05:11.834Z,77.61
2019-03-03T13:07:51.705Z,78.50
2019-03-03T13:10:24.932Z,77.47
2019-03-03T13:13:01.211Z,77.28
2019-03-03T13:15:34.246Z,76.69
2019-03-03T13:18:07.294Z,76.92
2019-03-03T13:20:43.335Z,76.02
2019-03-03T13:23:15.570Z,76.05
2019-03-03T13:26:04.128Z,75.64
2019-03-03T13:28:46.239Z,74.57
2019-03-03T13:31:21.870Z,75.18
2019-03-03T13:34:00.823Z,74.58
2019-03-03T13:36:43.056Z,74.31
2019-03-03T13:39:28.167Z,74.04
2019-03-03T13:42:03.767Z,74.16
2019-03-03T13:44:32.338Z,74.20
2019-03-03T13:47:04.078Z,75.47
2019-03-03T13:49:35.720Z,75.16
2019-03-03T13:52:09.060Z,73.74
2019-03-03T13:54:40.042Z,74.71
2019-03-03T13:57:11.834Z,75.24
2019-03-03T13:59:41.486Z,74.85
2019-03-03T14:02:14.864Z,75.13
2019-03-03T14:04:43.440Z,75.22
2019-03-03T14:07:14.802Z,74.51
2019-03-03T14:09:46.789Z,75.18
2019-03-03T14:12:18.068Z,75.17
2019-03-03T14:14:49.658Z,74.38
2019-03-03T14:17:20.945Z,75.10
2019-03-03T14:19:52.735Z,75.15
2019-03-03T14:22:24.217Z,74.49
2019-03-03T14:24:52.823Z,74.80
2019-03-03T14:27:24.195Z,74.81
2019-03-03T14:29:56.032Z,74.53
2019-03-03T14:32:27.369Z,75.18
2019-03-03T14:35:00.300Z,74.79
2019-03-03T14:37:31.539Z,74.79
2019-03-03T14:40:00.326Z,74.93
2019-03-03T14:42:29.512Z,75.33
2019-03-03T14:45:01.106Z,74.53
2019-03-03T14:47:32.668Z,74.66
2019-03-03T14:50:06.704Z,74.74
2019-03-03T14:52:35.314Z,75.09
2019-03-03T14:55:09.975Z,74.72
2019-03-03T14:57:41.270Z,75.51
2019-03-03T15:00:14.102Z,75.21
2019-03-03T15:02:43.081Z,75.82
2019-03-03T15:05:11.703Z,76.27
2019-03-03T15:07:42.947Z,75.67
2019-03-03T15:10:14.370Z,76.74
2019-03-03T15:12:42.912Z,77.21
2019-03-03T15:15:17.521Z,77.94
2019-03-03T15:17:48.795Z,79.08
2019-03-03T15:20:17.914Z,79.96
2019-03-03T15:22:46.645Z,79.78
2019-03-03T15:25:18.042Z,81.05
2019-03-03T15:27:49.739Z,82.09
2019-03-03T15:30:22.369Z,82.65
2019-03-03T15:32:53.745Z,83.32
2019-03-03T15:35:22.558Z,84.62
2019-03-03T15:38:14.724Z,85.14
2019-03-03T15:40:46.654Z,85.89
2019-03-03T15:43:17.987Z,87.05
2019-03-03T15:45:49.401Z,87.75
2019-03-03T15:48:20.734Z,88.37
2019-03-03T15:50:49.360Z,89.67
2019-03-03T15:53:17.975Z,90.10
2019-03-03T15:55:46.972Z,90.78
2019-03-03T15:58:15.529Z,91.58
2019-03-03T16:00:44.405Z,92.48
2019-03-03T16:03:12.979Z,92.33
2019-03-03T16:05:44.662Z,93.09
2019-03-03T16:08:16.343Z,93.01
2019-03-03T16:10:44.915Z,93.71
2019-03-03T16:13:16.444Z,93.58
2019-03-03T16:15:52.423Z,93.56
2019-03-03T16:18:22.680Z,94.17
2019-03-03T16:20:54.160Z,94.57
2019-03-03T16:26:22.645Z,95.18
2019-03-03T16:28:54.225Z,95.30
2019-03-03T16:31:22.839Z,95.48
2019-03-03T16:33:51.446Z,95.69
2019-03-03T16:36:23.896Z,95.72
2019-03-03T16:39:04.868Z,95.70
2019-03-03T16:41:33.510Z,95.83
2019-03-03T16:44:05.176Z,95.86
2019-03-03T16:46:35.549Z,96.07
2019-03-03T16:49:05.415Z,96.48
2019-03-03T16:51:42.506Z,96.52
2019-03-03T16:54:22.292Z,96.74
2019-03-03T16:56:50.905Z,96.98
2019-03-03T16:59:19.456Z,97.25
2019-03-03T17:01:48.515Z,96.94
2019-03-03T17:04:17.254Z,96.84
2019-03-03T17:06:46.238Z,96.78
2019-03-03T17:09:15.081Z,96.79
2019-03-03T17:11:46.607Z,96.50
2019-03-03T17:14:18.101Z,96.67
2019-03-03T17:16:46.751Z,96.66
2019-03-03T17:19:15.384Z,96.65
2019-03-03T17:21:46.958Z,96.62
2019-03-03T17:24:18.563Z,96.65
2019-03-03T17:26:47.184Z,96.53
2019-03-03T17:29:15.735Z,96.95
2019-03-03T17:31:44.733Z,97.19
2019-03-03T17:34:13.780Z,97.29
2019-03-03T17:36:42.433Z,97.47
2019-03-03T17:39:11.221Z,97.24
2019-03-03T17:41:39.939Z,97.12
2019-03-03T17:44:11.523Z,96.73
2019-03-03T17:46:42.798Z,96.99
2019-03-03T17:49:11.429Z,96.68
2019-03-03T17:51:42.816Z,96.69
2019-03-03T17:54:14.354Z,96.83
2019-03-03T17:56:43.007Z,96.59
2019-03-03T17:59:14.479Z,96.49
2019-03-03T18:01:43.120Z,96.39
2019-03-03T18:04:11.733Z,96.52
2019-03-03T18:06:40.322Z,96.63
2019-03-03T18:09:10.485Z,96.70
2019-03-03T18:11:40.635Z,96.81
2019-03-03T18:14:14.878Z,96.69
2019-03-03T18:16:46.495Z,96.64
2019-03-03T18:19:18.210Z,96.88
2019-03-03T18:21:46.855Z,96.77
2019-03-03T18:24:15.494Z,96.89
2019-03-03T18:26:44.047Z,96.97
2019-03-03T18:29:12.764Z,96.89
2019-03-03T18:31:41.316Z,96.96
2019-03-03T18:34:09.937Z,96.62
2019-03-03T18:36:41.652Z,96.80
2019-03-03T18:39:10.384Z,96.71
2019-03-03T18:41:40.559Z,96.25
2019-03-03T18:44:12.051Z,96.05
2019-03-03T18:46:43.338Z,95.92
2019-03-03T18:49:11.969Z,96.01
2019-03-03T18:51:46.017Z,96.13
2019-03-03T18:54:14.479Z,96.10
2019-03-03T18:56:43.097Z,95.85
2019-03-03T18:59:12.150Z,95.86
2019-03-03T19:01:41.295Z,95.94
2019-03-03T19:04:12.702Z,96.12
2019-03-03T19:06:44.299Z,95.65
2019-03-03T19:09:16.801Z,95.78
2019-03-03T19:11:45.548Z,95.63
2019-03-03T19:14:14.599Z,95.80
2019-03-03T19:16:43.328Z,95.81
2019-03-03T19:19:12.065Z,96.02
2019-03-03T19:21:40.700Z,96.02
2019-03-03T19:24:12.180Z,96.02
2019-03-03T19:26:40.804Z,95.72
2019-03-03T19:29:09.511Z,95.64
2019-03-03T19:31:39.597Z,95.32
2019-03-03T19:34:09.780Z,95.35
2019-03-03T19:36:41.278Z,95.35
2019-03-03T19:39:10.405Z,95.40
2019-03-03T19:41:40.590Z,94.89
2019-03-03T19:44:15.905Z,94.76
2019-03-03T19:46:44.573Z,95.02
2019-03-03T19:49:13.227Z,95.43
2019-03-03T19:51:42.105Z,95.21
2019-03-03T19:54:11.960Z,95.04
2019-03-03T19:56:40.625Z,94.79
2019-03-03T19:59:09.932Z,94.66
2019-03-03T20:01:38.887Z,94.39
2019-03-03T20:04:10.909Z,94.36
2019-03-03T20:06:39.525Z,94.50
2019-03-03T20:09:10.036Z,94.69
2019-03-03T20:11:42.225Z,94.69
2019-03-03T20:14:11.278Z,94.79
2019-03-03T20:16:42.675Z,94.25
2019-03-03T20:19:30.887Z,93.98
2019-03-03T20:22:02.454Z,93.96
2019-03-03T20:24:31.482Z,93.69
2019-03-03T20:27:00.427Z,92.98
2019-03-03T20:29:29.040Z,92.75
2019-03-03T20:31:58.165Z,92.61
2019-03-03T20:34:26.986Z,92.58
2019-03-03T20:36:55.610Z,92.17
2019-03-03T20:39:24.234Z,92.41
2019-03-03T20:41:55.996Z,92.26
2019-03-03T20:44:28.040Z,91.33
2019-03-03T20:46:57.063Z,92.17
2019-03-03T20:49:25.783Z,91.71
2019-03-03T20:51:54.713Z,91.88
2019-03-03T20:54:23.336Z,90.73
2019-03-03T20:56:52.043Z,91.17
2019-03-03T20:59:20.670Z,91.04
2019-03-03T21:01:49.303Z,91.03
2019-03-03T21:04:20.783Z,90.72
2019-03-03T21:06:49.805Z,90.45
2019-03-03T21:09:18.525Z,89.92
2019-03-03T21:11:50.238Z,90.00
2019-03-03T21:14:21.921Z,89.42
2019-03-03T21:16:50.539Z,89.71
2019-03-03T21:19:19.155Z,88.69
2019-03-03T21:21:47.775Z,88.85
2019-03-03T21:24:16.383Z,88.88
2019-03-03T21:26:45.001Z,88.60
2019-03-03T21:29:16.891Z,89.08
2019-03-03T21:31:45.463Z,89.13
2019-03-03T21:34:14.118Z,88.98
2019-03-03T21:36:42.723Z,89.05
2019-03-03T21:39:11.961Z,88.88
2019-03-03T21:41:40.599Z,88.15
2019-03-03T21:44:11.982Z,87.81
2019-03-03T21:46:40.602Z,87.77
2019-03-03T21:49:11.998Z,86.36
2019-03-03T21:51:40.833Z,87.49
2019-03-03T21:54:09.379Z,87.13
2019-03-03T21:56:41.037Z,87.19
2019-03-03T21:59:09.644Z,87.15
2019-03-03T22:01:39.815Z,87.02
2019-03-03T22:04:09.974Z,85.97
2019-03-03T22:06:42.379Z,86.76
2019-03-03T22:09:11.961Z,86.96
2019-03-03T22:11:40.618Z,87.24
2019-03-03T22:14:12.005Z,86.94
2019-03-03T22:16:40.612Z,86.77
2019-03-03T22:19:14.968Z,87.26
2019-03-03T22:21:46.339Z,86.13
2019-03-03T22:24:17.616Z,86.37
2019-03-03T22:26:46.252Z,86.21
2019-03-03T22:29:17.828Z,86.67
2019-03-03T22:31:46.849Z,88.12
2019-03-03T22:34:15.462Z,88.23
2019-03-03T22:36:47.165Z,88.32
2019-03-03T22:39:18.543Z,88.13
2019-03-03T22:41:47.160Z,88.97
2019-03-03T22:44:15.775Z,89.16
2019-03-03T22:46:47.144Z,89.02
2019-03-03T22:49:15.756Z,89.42
2019-03-03T22:51:44.365Z,89.22
2019-03-03T22:54:12.979Z,88.12
2019-03-03T22:56:44.357Z,88.64
2019-03-03T22:59:12.966Z,89.01
2019-03-03T23:01:41.677Z,88.66
2019-03-03T23:04:33.133Z,88.57
2019-03-03T23:07:10.552Z,88.27
2019-03-03T23:09:47.970Z,87.99
2019-03-03T23:12:31.432Z,87.81
2019-03-03T23:15:08.528Z,85.77
2019-03-03T23:18:11.568Z,86.21
2019-03-03T23:20:52.054Z,85.78
2019-03-03T23:23:41.568Z,85.53
2019-03-03T23:26:16.604Z,84.23
2019-03-03T23:28:43.603Z,85.00
2019-03-03T23:31:12.918Z,83.75
2019-03-03T23:33:44.289Z,84.49
2019-03-03T23:36:15.505Z,83.93
2019-03-03T23:38:44.389Z,84.67
2019-03-03T23:41:15.926Z,83.50
2019-03-03T23:43:44.580Z,82.94
2019-03-03T23:46:16.177Z,82.58
2019-03-03T23:48:44.766Z,82.81
2019-03-03T23:51:16.452Z,82.68
2019-03-03T23:53:45.466Z,82.22
2019-03-03T23:56:16.952Z,81.70
2019-03-03T23:58:45.981Z,82.17
